Time;durP1;ratioP1;P1;durP2;ratioP2;P2;SDS_P1;SDS_P2;PMS_P1;PMS_P2;Temp;Humidity;BMP_temperature;BMP_pressure;BME280_temperature;BME280_humidity;BME280_pressure;Samples;Min_cycle;Max_cycle;Signal;HPM_P1;HPM_P2
2023/08/31 00:03:48;;;;;;;0.20;0.17;;;;;;;16.02;100.00;100677.75;10364464;28;20098;-81
2023/08/31 00:08:50;;;;;;;0.25;0.10;;;;;;;16.25;100.00;100677.72;10367255;28;20093;-80
2023/08/31 00:13:52;;;;;;;0.15;0.15;;;;;;;15.94;100.00;100663.88;10349297;28;20046;-78
2023/08/31 00:18:56;;;;;;;0.00;0.00;;;;;;;15.99;100.00;100673.41;10365241;28;20057;-80
2023/08/31 00:23:57;;;;;;;0.00;0.00;;;;;;;16.06;100.00;100676.88;10366578;28;20038;-79
2023/08/31 00:28:59;;;;;;;0.45;0.35;;;;;;;16.01;100.00;100678.59;10343133;28;20052;-79
2023/08/31 00:34:03;;;;;;;0.00;0.00;;;;;;;15.81;100.00;100670.78;10349414;28;20576;-78
2023/08/31 00:39:06;;;;;;;0.45;0.25;;;;;;;15.95;100.00;100668.22;10371305;28;20046;-79
2023/08/31 00:44:08;;;;;;;0.10;0.10;;;;;;;15.58;100.00;100660.38;10353742;28;20049;-80
2023/08/31 00:49:10;;;;;;;0.47;0.28;;;;;;;15.52;100.00;100669.91;10344877;28;20065;-80
2023/08/31 00:54:12;;;;;;;0.10;0.10;;;;;;;15.26;100.00;100658.56;10357015;28;20050;-79
2023/08/31 00:59:14;;;;;;;0.75;0.45;;;;;;;15.40;100.00;100662.06;10343169;28;20132;-80
2023/08/31 01:04:48;;;;;;;0.30;0.00;;;;;;;15.29;100.00;100653.41;10352018;28;20045;-80
2023/08/31 01:10:04;;;;;;;0.10;0.10;;;;;;;15.36;100.00;100658.59;10353145;28;20076;-81
2023/08/31 01:15:10;;;;;;;0.05;0.05;;;;;;;15.18;100.00;100659.41;10370441;28;20571;-78
2023/08/31 01:20:17;;;;;;;0.60;0.40;;;;;;;15.70;100.00;100665.56;10367368;28;20042;-81
2023/08/31 01:25:18;;;;;;;0.10;0.10;;;;;;;15.65;100.00;100665.56;10355106;28;20413;-79
2023/08/31 01:30:20;;;;;;;0.10;0.10;;;;;;;15.80;100.00;100667.31;10335814;28;20136;-80
2023/08/31 01:35:22;;;;;;;0.10;0.10;;;;;;;16.27;100.00;100685.53;10376230;28;20050;-79
2023/08/31 01:40:34;;;;;;;0.00;0.00;;;;;;;15.70;100.00;100679.44;10364489;28;20112;-78
2023/08/31 01:45:37;;;;;;;0.30;0.22;;;;;;;15.40;100.00;100672.44;10376514;28;20049;-80
2023/08/31 01:50:39;;;;;;;0.10;0.10;;;;;;;15.39;100.00;100671.59;10374994;28;20044;-79
2023/08/31 01:55:40;;;;;;;0.22;0.05;;;;;;;15.31;100.00;100664.63;10359959;28;20046;-80
2023/08/31 02:00:42;;;;;;;0.50;0.22;;;;;;;15.14;100.00;100667.19;10369250;28;20054;-80
2023/08/31 02:05:43;;;;;;;0.05;0.05;;;;;;;15.01;100.00;100671.44;10351115;28;20069;-80
2023/08/31 02:10:48;;;;;;;0.63;0.40;;;;;;;14.84;100.00;100664.50;10364998;28;20492;-80
2023/08/31 02:15:56;;;;;;;0.47;0.40;;;;;;;14.93;100.00;100665.41;10354806;28;20041;-79
2023/08/31 02:21:00;;;;;;;0.90;0.47;;;;;;;15.26;100.00;100663.75;10333372;28;20053;-80
2023/08/31 02:26:02;;;;;;;0.90;0.40;;;;;;;15.22;100.00;100662.88;10352894;28;20052;-80
2023/08/31 02:31:03;;;;;;;0.20;0.20;;;;;;;15.32;100.00;100656.88;10367289;28;20533;-79
2023/08/31 02:36:05;;;;;;;0.63;0.55;;;;;;;15.60;100.00;100671.63;10349370;28;20054;-81
2023/08/31 02:41:07;;;;;;;0.85;0.57;;;;;;;15.45;100.00;100660.34;10352024;28;20046;-78
2023/08/31 02:46:10;;;;;;;0.90;0.63;;;;;;;15.83;100.00;100671.69;10344495;28;20468;-80
2023/08/31 02:51:12;;;;;;;1.77;0.65;;;;;;;16.33;100.00;100680.31;10338816;28;20053;-79
2023/08/31 02:56:13;;;;;;;0.20;0.20;;;;;;;16.53;100.00;100697.59;10345293;28;20496;-79
2023/08/31 03:01:15;;;;;;;0.30;0.20;;;;;;;16.94;100.00;100699.28;10352031;28;20081;-79
2023/08/31 03:06:21;;;;;;;0.13;0.13;;;;;;;17.12;100.00;100709.59;10355922;28;20042;-81
2023/08/31 03:11:22;;;;;;;0.15;0.15;;;;;;;17.39;100.00;100712.94;10372150;28;20464;-80
2023/08/31 03:16:24;;;;;;;0.47;0.30;;;;;;;16.64;100.00;100691.53;10360606;28;20132;-79
2023/08/31 03:21:25;;;;;;;1.85;0.57;;;;;;;15.97;100.00;100671.69;10324539;28;20049;-80
2023/08/31 03:26:27;;;;;;;0.82;0.50;;;;;;;15.95;100.00;100670.81;10344082;28;20049;-78
2023/08/31 03:31:29;;;;;;;0.35;0.20;;;;;;;15.79;100.00;100663.00;10339180;28;20497;-81
2023/08/31 03:36:31;;;;;;;1.27;0.40;;;;;;;15.68;100.00;100664.69;10350141;28;20081;-79
2023/08/31 03:41:35;;;;;;;0.95;0.60;;;;;;;16.14;100.00;100669.94;10341287;28;20052;-81
2023/08/31 03:46:37;;;;;;;0.40;0.40;;;;;;;15.70;100.00;100662.97;10362202;28;20042;-80
2023/08/31 03:51:38;;;;;;;0.38;0.20;;;;;;;16.34;100.00;100677.72;10341640;28;20061;-80
2023/08/31 03:56:40;;;;;;;0.45;0.38;;;;;;;16.39;100.00;100675.09;10348556;28;20034;-81
2023/08/31 04:01:41;;;;;;;0.88;0.57;;;;;;;17.15;100.00;100687.03;10352305;28;20038;-79
2023/08/31 04:06:45;;;;;;;0.88;0.50;;;;;;;16.30;100.00;100660.41;10346920;28;20609;-80
2023/08/31 04:11:46;;;;;;;0.77;0.70;;;;;;;15.92;100.00;100665.59;10348163;28;20052;-79
2023/08/31 04:16:50;;;;;;;0.57;0.38;;;;;;;16.08;100.00;100648.31;10346111;28;20148;-79
2023/08/31 04:21:51;;;;;;;0.60;0.52;;;;;;;15.96;100.00;100664.75;10334078;28;20074;-81
2023/08/31 04:26:53;;;;;;;0.93;0.75;;;;;;;16.06;100.00;100655.22;10357577;28;20133;-80
2023/08/31 04:31:55;;;;;;;1.30;0.82;;;;;;;15.97;100.00;100663.91;10348342;28;20896;-80
2023/08/31 04:36:56;;;;;;;0.85;0.57;;;;;;;15.85;100.00;100668.22;10348415;28;20081;-80
2023/08/31 04:41:58;;;;;;;0.98;0.60;;;;;;;15.96;100.00;100672.56;10321646;28;20046;-79
2023/08/31 04:47:01;;;;;;;1.70;1.33;;;;;;;16.31;100.00;100676.84;10358794;28;20414;-81
2023/08/31 04:52:03;;;;;;;0.57;0.57;;;;;;;16.37;100.00;100687.22;10348075;28;20622;-79
2023/08/31 04:57:07;;;;;;;1.42;0.50;;;;;;;15.91;100.00;100671.66;10357028;28;20553;-80
2023/08/31 05:02:08;;;;;;;1.85;1.20;;;;;;;16.08;100.00;100677.75;10356212;28;20057;-82
2023/08/31 05:07:10;;;;;;;0.63;0.50;;;;;;;15.91;100.00;100667.34;10359259;28;20034;-81
2023/08/31 05:12:11;;;;;;;1.10;0.60;;;;;;;15.53;100.00;100676.78;10335067;28;20049;-81
2023/08/31 05:17:13;;;;;;;1.73;0.73;;;;;;;16.24;100.00;100688.13;10359144;28;20045;-82
2023/08/31 05:22:14;;;;;;;0.60;0.50;;;;;;;15.99;100.00;100696.81;10363178;28;20046;-81
2023/08/31 05:27:16;;;;;;;0.82;0.80;;;;;;;15.90;100.00;100696.78;10344886;28;20444;-82
2023/08/31 05:32:17;;;;;;;1.80;0.93;;;;;;;15.93;100.00;100703.72;10345230;28;20483;-81
2023/08/31 05:37:19;;;;;;;0.80;0.52;;;;;;;16.21;100.00;100701.09;10346567;28;20574;-80
2023/08/31 05:42:22;;;;;;;2.85;1.75;;;;;;;16.08;100.00;100703.72;10350392;28;20054;-79
2023/08/31 05:47:24;;;;;;;2.00;1.45;;;;;;;15.94;100.00;100703.72;10341352;28;20835;-79
2023/08/31 05:52:26;;;;;;;1.85;1.17;;;;;;;16.22;100.00;100729.72;10362981;28;20042;-80
2023/08/31 05:57:28;;;;;;;1.05;0.98;;;;;;;16.24;100.00;100734.91;10370407;28;20045;-79
2023/08/31 06:02:30;;;;;;;1.02;0.60;;;;;;;16.31;100.00;100723.66;10363724;28;20050;-80
2023/08/31 06:07:31;;;;;;;0.40;0.30;;;;;;;16.76;100.00;100737.44;10352668;28;20049;-80
2023/08/31 06:12:33;;;;;;;1.40;1.13;;;;;;;16.53;100.00;100737.47;10369449;28;20124;-80
2023/08/31 06:17:35;;;;;;;0.32;0.32;;;;;;;17.19;100.00;100761.63;10367328;28;20042;-82
2023/08/31 06:22:36;;;;;;;0.30;0.30;;;;;;;17.03;100.00;100766.88;10333086;28;20061;-80
2023/08/31 06:27:39;;;;;;;2.78;0.52;;;;;;;17.18;100.00;100754.69;10366961;28;20045;-80
2023/08/31 06:32:45;;;;;;;2.65;0.95;;;;;;;17.54;100.00;100764.09;10352614;28;20050;-81
2023/08/31 06:37:46;;;;;;;1.35;0.95;;;;;;;17.44;100.00;100771.09;10363424;28;20521;-82
2023/08/31 06:42:48;;;;;;;0.50;0.50;;;;;;;17.35;100.00;100776.31;10362376;28;20042;-81
2023/08/31 06:47:50;;;;;;;0.47;0.47;;;;;;;17.42;100.00;100778.03;10351535;28;20033;-81
2023/08/31 06:52:51;;;;;;;0.38;0.35;;;;;;;17.92;100.00;100783.84;10368713;28;20048;-80
2023/08/31 06:57:53;;;;;;;3.70;1.70;;;;;;;17.82;100.00;100791.72;10360338;28;20551;-81
2023/08/31 07:02:57;;;;;;;1.58;1.00;;;;;;;18.48;100.00;100795.63;10361626;28;20550;-79
2023/08/31 07:07:59;;;;;;;1.02;0.93;;;;;;;18.94;100.00;100815.22;10359409;28;20045;-80
2023/08/31 07:13:00;;;;;;;0.45;0.45;;;;;;;18.64;100.00;100815.50;10362971;28;20038;-81
2023/08/31 07:18:02;;;;;;;0.88;0.80;;;;;;;18.57;100.00;100824.25;10365662;28;20515;-78
2023/08/31 07:23:04;;;;;;;0.90;0.60;;;;;;;18.65;100.00;100834.59;10366188;28;20041;-79
2023/08/31 07:28:05;;;;;;;0.68;0.40;;;;;;;18.67;100.00;100841.53;10364833;28;20046;-80
2023/08/31 07:33:07;;;;;;;0.47;0.47;;;;;;;18.54;100.00;100839.91;10357092;28;20818;-80
2023/08/31 07:38:31;;;;;;;0.70;0.30;;;;;;;18.55;100.00;100844.25;10355200;28;20048;-79
2023/08/31 07:43:32;;;;;;;0.57;0.40;;;;;;;19.41;100.00;100847.81;10353168;28;20406;-80
2023/08/31 07:48:34;;;;;;;0.95;0.68;;;;;;;19.66;100.00;100864.03;10354270;28;20046;-79
2023/08/31 07:53:35;;;;;;;0.50;0.50;;;;;;;20.79;100.00;100864.19;10326965;28;20046;-78
2023/08/31 07:58:37;;;;;;;2.10;0.22;;;;;;;19.85;100.00;100874.28;10364086;28;20048;-78
2023/08/31 08:03:38;;;;;;;0.10;0.10;;;;;;;19.91;100.00;100869.00;10363002;28;20445;-81
2023/08/31 08:08:41;;;;;;;0.77;0.30;;;;;;;20.28;100.00;100871.09;10347369;28;20500;-80
2023/08/31 08:13:42;;;;;;;0.28;0.28;;;;;;;20.28;100.00;100873.69;10348357;28;20508;-79
2023/08/31 08:18:44;;;;;;;0.40;0.40;;;;;;;21.33;100.00;100876.31;10357132;28;20413;-79
2023/08/31 08:23:45;;;;;;;0.63;0.63;;;;;;;20.91;100.00;100889.31;10363820;28;20041;-82
2023/08/31 08:28:47;;;;;;;0.08;0.08;;;;;;;21.21;100.00;100898.34;10361346;28;20531;-80
2023/08/31 08:33:48;;;;;;;2.38;0.52;;;;;;;21.10;100.00;100904.69;10360268;28;20034;-82
2023/08/31 08:38:50;;;;;;;0.63;0.30;;;;;;;20.26;100.00;100919.94;10344942;28;20599;-80
2023/08/31 08:43:52;;;;;;;0.22;0.20;;;;;;;19.87;100.00;100930.03;10314097;28;20046;-79
2023/08/31 08:48:54;;;;;;;0.00;0.00;;;;;;;19.45;100.00;100906.97;10357092;28;20228;-80
2023/08/31 08:53:56;;;;;;;0.63;0.30;;;;;;;19.50;100.00;100914.75;10347962;28;20493;-80
2023/08/31 08:58:58;;;;;;;0.20;0.20;;;;;;;20.00;100.00;100922.91;10343314;28;20049;-80
2023/08/31 09:04:00;;;;;;;0.10;0.10;;;;;;;19.85;100.00;100925.72;10349942;28;20046;-80
2023/08/31 09:09:02;;;;;;;0.22;0.20;;;;;;;20.27;100.00;100920.78;10346253;28;20398;-80
2023/08/31 09:14:17;;;;;;;0.00;0.00;;;;;;;20.57;100.00;100922.09;10344912;28;20049;-80
2023/08/31 09:19:23;;;;;;;0.10;0.10;;;;;;;21.45;100.00;100932.84;10348896;28;20066;-81
2023/08/31 09:24:25;;;;;;;0.05;0.00;;;;;;;22.13;100.00;100920.13;10368438;28;20521;-80
2023/08/31 09:29:27;;;;;;;0.13;0.10;;;;;;;22.44;100.00;100930.88;10357334;28;20133;-80
2023/08/31 09:34:36;;;;;;;0.10;0.00;;;;;;;21.50;100.00;100946.72;10347301;28;20046;-80
2023/08/31 09:39:39;;;;;;;0.10;0.10;;;;;;;20.94;100.00;100946.84;10368729;28;20050;-80
2023/08/31 09:44:43;;;;;;;0.30;0.00;;;;;;;21.10;100.00;100957.94;10344382;28;20041;-81
2023/08/31 09:49:46;;;;;;;0.20;0.20;;;;;;;21.60;100.00;100949.22;10345057;28;20045;-80
2023/08/31 09:54:50;;;;;;;0.65;0.45;;;;;;;21.54;100.00;100964.16;10353822;28;20515;-81
2023/08/31 09:59:52;;;;;;;0.10;0.10;;;;;;;20.63;100.00;100968.25;10356895;28;20045;-80
2023/08/31 10:04:53;;;;;;;0.65;0.40;;;;;;;21.05;100.00;100965.00;10342528;28;20034;-80
2023/08/31 10:09:56;;;;;;;0.00;0.00;;;;;;;21.29;100.00;100957.63;10361400;28;20071;-80
2023/08/31 10:14:58;;;;;;;0.38;0.30;;;;;;;22.95;100.00;100960.28;10370694;28;20046;-82
2023/08/31 10:20:00;;;;;;;0.00;0.00;;;;;;;24.05;100.00;100960.03;10364377;28;20084;-83
2023/08/31 10:25:03;;;;;;;0.68;0.22;;;;;;;23.61;100.00;100955.94;10358852;28;20041;-82
2023/08/31 10:30:21;;;;;;;0.10;0.10;;;;;;;22.34;100.00;100950.31;10367717;28;20045;-80
2023/08/31 10:35:40;;;;;;;0.20;0.20;;;;;;;22.14;100.00;100943.75;10357701;28;20042;-82
2023/08/31 10:40:59;;;;;;;0.10;0.10;;;;;;;24.30;100.00;100931.19;10370013;28;20547;-82
2023/08/31 10:46:00;;;;;;;0.38;0.28;;;;;;;24.89;100.00;100918.78;10354202;28;20039;-82
2023/08/31 10:51:03;;;;;;;0.93;0.38;;;;;;;23.80;100.00;100923.00;10363552;28;20738;-81
2023/08/31 10:56:05;;;;;;;0.00;0.00;;;;;;;22.49;100.00;100922.84;10352588;28;20539;-83
2023/08/31 11:01:07;;;;;;;0.10;0.08;;;;;;;22.49;100.00;100934.22;10342232;28;20563;-80
2023/08/31 11:06:10;;;;;;;0.22;0.15;;;;;;;21.78;100.00;100945.38;10354054;28;20440;-81
2023/08/31 11:11:12;;;;;;;0.95;0.35;;;;;;;20.68;100.00;100950.72;10368306;28;20049;-80
2023/08/31 11:16:14;;;;;;;1.25;0.10;;;;;;;21.29;100.00;100942.78;10347934;28;20038;-80
2023/08/31 11:21:15;;;;;;;1.13;0.35;;;;;;;22.03;100.00;100940.47;10340369;28;20082;-80
2023/08/31 11:26:17;;;;;;;0.10;0.10;;;;;;;23.07;100.00;100941.56;10358369;28;20390;-79
2023/08/31 11:31:25;;;;;;;0.80;0.65;;;;;;;23.69;100.00;100932.06;10363170;28;20057;-80
2023/08/31 11:36:26;;;;;;;0.25;0.25;;;;;;;24.25;100.00;100933.06;10364033;28;20050;-80
2023/08/31 11:41:32;;;;;;;3.35;0.25;;;;;;;24.61;100.00;100927.56;10343217;28;20144;-80
2023/08/31 11:46:34;;;;;;;0.38;0.38;;;;;;;25.20;100.00;100925.66;10355769;28;20038;-80
2023/08/31 11:51:39;;;;;;;0.73;0.63;;;;;;;24.57;100.00;100918.03;10364212;28;20563;-81
2023/08/31 11:56:47;;;;;;;0.00;0.00;;;;;;;25.00;100.00;100927.16;10358966;28;20042;-80
2023/08/31 12:01:50;;;;;;;0.20;0.20;;;;;;;24.03;100.00;100944.25;10364157;28;20092;-81
2023/08/31 12:06:53;;;;;;;0.55;0.10;;;;;;;23.09;100.00;100928.38;10347951;28;20574;-81
2023/08/31 12:11:55;;;;;;;0.25;0.15;;;;;;;24.73;100.00;100915.78;10355748;28;20050;-81
2023/08/31 12:17:06;;;;;;;0.00;0.00;;;;;;;24.26;100.00;100926.91;10361699;28;20536;-81
2023/08/31 12:22:12;;;;;;;0.38;0.13;;;;;;;23.80;100.00;100925.63;10357008;28;20050;-81
2023/08/31 12:27:14;;;;;;;0.03;0.03;;;;;;;24.33;100.00;100927.59;10356552;28;20123;-80
2023/08/31 12:32:17;;;;;;;0.35;0.32;;;;;;;24.42;100.00;100929.06;10363760;28;20145;-80
2023/08/31 12:37:19;;;;;;;0.50;0.20;;;;;;;25.21;100.00;100929.13;10356383;28;20050;-81
2023/08/31 12:42:21;;;;;;;0.20;0.15;;;;;;;26.16;100.00;100930.09;10347230;28;20042;-81
2023/08/31 12:47:24;;;;;;;1.17;0.30;;;;;;;24.29;100.00;100940.00;10340944;28;20069;-81
2023/08/31 12:52:26;;;;;;;0.63;0.47;;;;;;;24.52;100.00;100914.69;10367695;28;20058;-80
2023/08/31 12:57:27;;;;;;;0.03;0.00;;;;;;;24.86;100.00;100918.88;10357598;28;20054;-80
2023/08/31 13:02:29;;;;;;;0.10;0.00;;;;;;;24.20;100.00;100929.75;10370168;28;20060;-80
2023/08/31 13:07:31;;;;;;;0.10;0.10;;;;;;;24.60;100.00;100925.84;10338379;28;20050;-80
2023/08/31 13:12:33;;;;;;;0.08;0.00;;;;;;;24.34;100.00;100932.81;10372078;28;20420;-81
2023/08/31 13:17:34;;;;;;;0.82;0.20;;;;;;;24.89;100.00;100921.41;10363247;28;20501;-80
2023/08/31 13:22:37;;;;;;;0.10;0.10;;;;;;;24.49;100.00;100930.59;10356455;28;20514;-80
2023/08/31 13:27:38;;;;;;;0.00;0.00;;;;;;;23.80;100.00;100930.88;10371623;28;20051;-80
2023/08/31 13:32:40;;;;;;;0.03;0.03;;;;;;;23.94;100.00;100934.00;10362118;28;20057;-80
2023/08/31 13:37:42;;;;;;;0.10;0.10;;;;;;;23.69;100.00;100934.69;10350165;28;20476;-80
2023/08/31 13:42:54;;;;;;;0.00;0.00;;;;;;;25.00;100.00;100923.69;10360397;28;20088;-80
2023/08/31 13:47:58;;;;;;;0.10;0.10;;;;;;;25.54;100.00;100929.72;10360035;28;20033;-81
2023/08/31 13:53:00;;;;;;;0.00;0.00;;;;;;;24.61;100.00;100945.13;10363291;28;20046;-80
2023/08/31 13:58:08;;;;;;;0.05;0.00;;;;;;;24.45;100.00;100945.63;10345196;28;20038;-80
2023/08/31 14:03:10;;;;;;;0.10;0.10;;;;;;;24.63;100.00;100938.06;10350927;28;20046;-81
2023/08/31 14:08:11;;;;;;;0.00;0.00;;;;;;;25.48;100.00;100937.88;10360686;28;20157;-80
2023/08/31 14:13:13;;;;;;;0.00;0.00;;;;;;;25.10;100.00;100934.78;10372779;28;20042;-81
2023/08/31 14:18:15;;;;;;;1.25;0.00;;;;;;;24.95;100.00;100938.78;10344641;28;20042;-81
2023/08/31 14:23:17;;;;;;;0.05;0.05;;;;;;;24.30;100.00;100960.16;10333336;28;20477;-81
2023/08/31 14:28:19;;;;;;;0.00;0.00;;;;;;;24.11;100.00;100972.13;10357405;28;20096;-80
2023/08/31 14:33:20;;;;;;;0.00;0.00;;;;;;;23.92;100.00;100964.75;10354787;28;20100;-80
2023/08/31 14:38:23;;;;;;;0.00;0.00;;;;;;;24.04;100.00;100964.41;10359290;28;20072;-80
2023/08/31 14:43:24;;;;;;;0.00;0.00;;;;;;;23.88;100.00;100965.72;10340368;28;20136;-79
2023/08/31 14:48:32;;;;;;;0.00;0.00;;;;;;;23.67;100.00;100973.31;10355264;28;20050;-79
2023/08/31 14:53:33;;;;;;;0.00;0.00;;;;;;;23.49;100.00;100973.84;10354368;28;20054;-79
2023/08/31 14:58:35;;;;;;;0.00;0.00;;;;;;;23.53;100.00;100984.22;10352274;28;20046;-79
2023/08/31 15:03:37;;;;;;;0.03;0.03;;;;;;;24.53;100.00;100974.38;10343488;28;20163;-79
2023/08/31 15:08:43;;;;;;;0.00;0.00;;;;;;;24.50;100.00;100977.94;10361780;28;20425;-79
2023/08/31 15:13:44;;;;;;;0.00;0.00;;;;;;;24.68;100.00;100973.91;10345957;28;20045;-79
2023/08/31 15:18:47;;;;;;;0.00;0.00;;;;;;;24.44;100.00;100982.56;10364837;28;20057;-80
2023/08/31 15:23:49;;;;;;;0.00;0.00;;;;;;;24.48;100.00;100985.03;10361682;28;20041;-78
2023/08/31 15:28:51;;;;;;;0.28;0.08;;;;;;;24.45;100.00;100993.03;10357993;28;20045;-79
2023/08/31 15:33:53;;;;;;;0.10;0.10;;;;;;;25.23;100.00;100994.06;10361484;28;20081;-78
2023/08/31 15:38:54;;;;;;;0.10;0.00;;;;;;;24.78;100.00;100994.66;10364915;28;20046;-80
2023/08/31 15:43:56;;;;;;;0.00;0.00;;;;;;;24.27;100.00;101006.75;10341754;28;20117;-80
2023/08/31 15:48:58;;;;;;;0.00;0.00;;;;;;;24.66;100.00;101001.16;10361113;28;20042;-80
2023/08/31 15:54:03;;;;;;;0.00;0.00;;;;;;;24.35;100.00;101013.50;10347969;28;20049;-81
2023/08/31 15:59:05;;;;;;;0.00;0.00;;;;;;;23.79;100.00;101002.84;10365451;28;20056;-79
2023/08/31 16:04:06;;;;;;;0.00;0.00;;;;;;;24.06;100.00;101009.97;10365390;28;20497;-79
2023/08/31 16:09:08;;;;;;;0.00;0.00;;;;;;;23.88;100.00;101013.97;10346843;28;20042;-80
2023/08/31 16:14:10;;;;;;;0.00;0.00;;;;;;;24.50;100.00;101003.41;10344026;28;20080;-80
2023/08/31 16:19:12;;;;;;;0.00;0.00;;;;;;;24.45;100.00;101007.97;10355990;28;20041;-78
2023/08/31 16:24:14;;;;;;;0.00;0.00;;;;;;;24.26;100.00;101013.78;10349435;28;20049;-80
2023/08/31 16:29:16;;;;;;;0.00;0.00;;;;;;;24.17;100.00;101019.31;10342772;28;20046;-79
2023/08/31 16:34:18;;;;;;;0.00;0.00;;;;;;;23.35;100.00;101014.47;10354041;28;20042;-80
2023/08/31 16:39:21;;;;;;;0.00;0.00;;;;;;;24.05;100.00;101016.13;10347111;28;20049;-78
2023/08/31 16:44:22;;;;;;;0.00;0.00;;;;;;;24.50;100.00;101011.31;10352372;28;20072;-80
2023/08/31 16:49:24;;;;;;;0.03;0.03;;;;;;;24.31;100.00;101013.66;10350404;28;20042;-78
2023/08/31 16:54:25;;;;;;;0.40;0.00;;;;;;;24.18;100.00;101026.31;10359849;28;20065;-79
2023/08/31 16:59:27;;;;;;;0.00;0.00;;;;;;;24.26;100.00;101024.31;10339822;28;20230;-79
2023/08/31 17:04:29;;;;;;;0.20;0.20;;;;;;;24.15;100.00;101027.25;10362625;28;20045;-80
2023/08/31 17:09:30;;;;;;;0.00;0.00;;;;;;;24.29;100.00;101023.34;10362902;28;20045;-80
2023/08/31 17:14:32;;;;;;;0.17;0.15;;;;;;;23.64;100.00;101030.41;10337965;28;20049;-80
2023/08/31 17:19:34;;;;;;;0.45;0.10;;;;;;;23.19;100.00;101021.91;10355928;28;20048;-80
2023/08/31 17:24:35;;;;;;;0.22;0.22;;;;;;;22.39;100.00;101029.81;10359278;28;20049;-79
2023/08/31 17:29:37;;;;;;;0.68;0.65;;;;;;;22.84;100.00;101026.22;10342767;28;20119;-78
2023/08/31 17:34:38;;;;;;;1.13;0.38;;;;;;;22.81;100.00;101035.03;10329863;28;20509;-78
2023/08/31 17:39:40;;;;;;;0.85;0.70;;;;;;;22.63;100.00;101036.31;10352553;28;20054;-80
2023/08/31 17:44:41;;;;;;;0.40;0.20;;;;;;;23.11;100.00;101035.22;10360450;28;20108;-78
2023/08/31 17:49:43;;;;;;;0.43;0.30;;;;;;;23.23;100.00;101041.09;10369120;28;20517;-78
2023/08/31 17:54:44;;;;;;;0.45;0.30;;;;;;;23.43;100.00;101038.81;10365217;28;20042;-79
2023/08/31 17:59:47;;;;;;;0.30;0.30;;;;;;;23.23;100.00;101041.94;10361007;28;20564;-79
2023/08/31 18:04:49;;;;;;;1.95;0.45;;;;;;;22.97;100.00;101050.44;10349355;28;20427;-78
2023/08/31 18:09:50;;;;;;;0.25;0.05;;;;;;;22.63;100.00;101062.59;10368306;28;20050;-80
2023/08/31 18:14:52;;;;;;;0.22;0.22;;;;;;;22.47;100.00;101062.03;10373420;28;20046;-79
2023/08/31 18:19:54;;;;;;;0.00;0.00;;;;;;;22.12;100.00;101066.22;10357772;28;20455;-78
2023/08/31 18:24:55;;;;;;;0.00;0.00;;;;;;;21.99;100.00;101072.59;10351347;28;20065;-78
2023/08/31 18:29:57;;;;;;;0.10;0.10;;;;;;;21.69;100.00;101077.53;10367470;28;20051;-79
2023/08/31 18:34:58;;;;;;;0.20;0.20;;;;;;;21.37;100.00;101082.38;10369052;28;20050;-78
2023/08/31 18:40:00;;;;;;;0.13;0.13;;;;;;;21.27;100.00;101085.16;10360461;28;20046;-79
2023/08/31 18:45:01;;;;;;;4.10;0.57;;;;;;;21.36;100.00;101085.03;10352814;28;20045;-80
2023/08/31 18:50:07;;;;;;;0.10;0.10;;;;;;;20.82;100.00;101088.44;10368558;28;20057;-78
2023/08/31 18:55:09;;;;;;;0.00;0.00;;;;;;;20.67;100.00;101085.13;10347063;28;20144;-79
2023/08/31 19:00:14;;;;;;;0.10;0.10;;;;;;;20.48;100.00;101094.97;10364252;28;20133;-79
2023/08/31 19:05:15;;;;;;;1.60;0.38;;;;;;;20.72;100.00;101090.31;10348595;28;20052;-78
2023/08/31 19:10:18;;;;;;;0.20;0.20;;;;;;;20.37;100.00;101087.25;10370062;28;20115;-78
2023/08/31 19:15:19;;;;;;;0.30;0.25;;;;;;;19.83;100.00;101095.63;10365068;28;20457;-78
2023/08/31 19:20:21;;;;;;;0.35;0.08;;;;;;;19.95;100.00;101092.06;10372070;28;20038;-79
2023/08/31 19:25:29;;;;;;;0.30;0.10;;;;;;;19.61;100.00;101097.56;10371407;28;20046;-78
2023/08/31 19:30:31;;;;;;;0.08;0.08;;;;;;;18.64;100.00;101107.75;10353705;28;20052;-78
2023/08/31 19:35:32;;;;;;;0.17;0.17;;;;;;;19.88;100.00;101108.69;10368228;28;20820;-79
2023/08/31 19:40:36;;;;;;;0.10;0.10;;;;;;;20.22;100.00;101103.97;10343765;28;20092;-79
2023/08/31 19:45:38;;;;;;;0.40;0.20;;;;;;;20.21;100.00;101099.63;10369357;28;20042;-80
2023/08/31 19:50:40;;;;;;;0.00;0.00;;;;;;;19.72;100.00;101107.91;10349823;28;20125;-80
2023/08/31 19:55:41;;;;;;;0.00;0.00;;;;;;;20.06;100.00;101110.25;10356947;28;20285;-78
2023/08/31 20:00:43;;;;;;;0.03;0.03;;;;;;;19.95;100.00;101111.22;10358517;28;20057;-78
2023/08/31 20:05:44;;;;;;;0.00;0.00;;;;;;;19.51;100.00;101115.06;10361149;28;20659;-79
2023/08/31 20:10:46;;;;;;;0.68;0.50;;;;;;;19.36;100.00;101113.44;10342369;28;20111;-79
2023/08/31 20:15:47;;;;;;;0.00;0.00;;;;;;;19.05;100.00;101111.03;10345851;28;20508;-79
2023/08/31 20:20:49;;;;;;;0.10;0.10;;;;;;;19.08;100.00;101120.59;10343589;28;20053;-80
2023/08/31 20:25:50;;;;;;;0.35;0.10;;;;;;;19.11;100.00;101120.56;10359471;28;20610;-79
2023/08/31 20:30:57;;;;;;;0.00;0.00;;;;;;;18.82;100.00;101124.16;10341099;28;20712;-79
2023/08/31 20:36:04;;;;;;;0.03;0.03;;;;;;;18.76;100.00;101124.19;10343834;28;20034;-78
2023/08/31 20:41:07;;;;;;;0.10;0.10;;;;;;;17.98;100.00;101119.22;10355651;28;20099;-79
2023/08/31 20:46:10;;;;;;;0.43;0.22;;;;;;;19.00;100.00;101131.94;10337058;28;20409;-79
2023/08/31 20:51:12;;;;;;;0.00;0.00;;;;;;;19.13;100.00;101124.94;10338157;28;20053;-78
2023/08/31 20:56:14;;;;;;;0.00;0.00;;;;;;;18.94;100.00;101123.28;10351077;28;20058;-78
2023/08/31 21:01:16;;;;;;;0.28;0.15;;;;;;;18.05;100.00;101120.97;10340880;28;20510;-79
2023/08/31 21:06:17;;;;;;;0.00;0.00;;;;;;;18.15;100.00;101123.53;10334659;28;20189;-79
2023/08/31 21:11:20;;;;;;;0.10;0.10;;;;;;;18.41;100.00;101122.59;10373947;28;20571;-78
2023/08/31 21:16:22;;;;;;;0.25;0.20;;;;;;;18.84;100.00;101143.31;10365413;28;20025;-80
2023/08/31 21:21:23;;;;;;;0.00;0.00;;;;;;;18.88;100.00;101145.00;10355091;28;20045;-79
2023/08/31 21:26:25;;;;;;;0.95;0.13;;;;;;;18.87;100.00;101133.72;10369236;28;20085;-79
2023/08/31 21:31:28;;;;;;;0.10;0.10;;;;;;;18.62;100.00;101132.97;10369819;28;20057;-79
2023/08/31 21:36:29;;;;;;;0.10;0.10;;;;;;;18.83;100.00;101131.13;10375260;28;20124;-80
2023/08/31 21:41:31;;;;;;;0.00;0.00;;;;;;;18.81;100.00;101128.53;10369098;28;20131;-78
2023/08/31 21:46:32;;;;;;;0.30;0.30;;;;;;;19.02;100.00;101124.97;10365849;28;20493;-80
2023/08/31 21:51:34;;;;;;;0.00;0.00;;;;;;;18.70;100.00;101115.53;10368482;28;20055;-80
2023/08/31 21:56:36;;;;;;;0.00;0.00;;;;;;;18.93;100.00;101111.97;10372080;28;20052;-79
2023/08/31 22:01:38;;;;;;;0.20;0.20;;;;;;;18.26;100.00;101113.97;10355975;28;20054;-80
2023/08/31 22:06:40;;;;;;;0.47;0.20;;;;;;;19.36;100.00;101120.41;10372249;28;20037;-79
2023/08/31 22:11:41;;;;;;;0.10;0.10;;;;;;;18.88;100.00;101126.75;10374165;28;20038;-79
2023/08/31 22:16:43;;;;;;;0.75;0.20;;;;;;;19.22;100.00;101133.56;10356526;28;20125;-79
2023/08/31 22:21:45;;;;;;;0.30;0.22;;;;;;;19.39;100.00;101121.25;10350376;28;20138;-79
2023/08/31 22:26:46;;;;;;;1.27;0.50;;;;;;;19.57;100.00;101130.69;10374419;28;20038;-79
2023/08/31 22:31:48;;;;;;;0.00;0.00;;;;;;;19.66;100.00;101129.75;10374184;28;20509;-79
2023/08/31 22:36:49;;;;;;;0.20;0.20;;;;;;;19.63;100.00;101135.00;10365599;28;20041;-80
2023/08/31 22:41:51;;;;;;;0.00;0.00;;;;;;;19.56;100.00;101138.56;10346399;28;20096;-78
2023/08/31 22:46:53;;;;;;;0.00;0.00;;;;;;;18.95;100.00;101131.09;10370192;28;20050;-79
2023/08/31 22:51:54;;;;;;;0.43;0.30;;;;;;;19.12;100.00;101127.53;10347178;28;20049;-78
2023/08/31 22:56:56;;;;;;;0.10;0.10;;;;;;;19.71;100.00;101127.09;10368240;28;20097;-80